.
WxDataArchive / Data Records for 2016-05-18
2016-05-17 May 2016 2016-05-19

Data Records for Wednesday, 18 May 2016

Time	Temp	Chill	HIndex	Humid	Dewpt	 Wind 	HiWind	WindDir	Rain 	Barom
-----	----	-----	------	-----	-----	------	------	-------	-----	-----
00:00	51.9	51.9	51.9	88	48.5	0	1	68	0.00	30.153 
00:05	51.9	51.9	51.9	88	48.5	0	0	---	0.00	30.153 
00:10	51.9	51.9	51.9	88	48.5	0	0	---	0.00	30.153 
00:15	51.9	51.9	51.9	89	48.8	0	0	---	0.00	30.155 
00:20	51.9	51.9	51.9	89	48.8	0	0	---	0.00	30.155 
00:25	51.9	51.9	51.9	89	48.8	0	0	---	0.00	30.155 
00:30	51.9	51.9	51.9	89	48.8	0	0	---	0.00	30.152 
00:35	51.9	51.9	51.9	89	48.8	0	0	---	0.00	30.152 
00:40	51.9	51.9	51.9	89	48.8	0	0	---	0.00	30.152 
00:45	51.9	51.9	51.9	90	49.1	0	0	---	0.01	30.153 
00:50	51.9	51.9	51.9	90	49.1	0	0	---	0.00	30.153 
00:55	51.9	51.9	51.9	90	49.1	0	0	---	0.00	30.153 
01:00	51.9	51.9	51.9	90	49.1	0	0	---	0.00	30.154 
01:05	51.9	51.9	51.9	90	49.1	0	0	---	0.00	30.154 
01:10	51.9	51.9	51.9	90	49.1	0	0	---	0.00	30.154 
01:15	51.7	51.7	51.7	90	48.9	0	0	---	0.00	30.152 
01:20	51.7	51.7	51.7	90	48.9	0	0	---	0.00	30.152 
01:25	51.7	51.7	51.7	90	48.9	0	0	---	0.00	30.152 
01:30	51.7	51.7	51.7	90	48.9	0	1	68	0.00	30.154 
01:35	51.7	51.7	51.7	91	49.2	0	0	---	0.00	30.154 
01:40	51.7	51.7	51.7	91	49.2	0	0	---	0.00	30.154 
01:45	51.7	51.7	51.7	91	49.2	0	1	68	0.00	30.156 
01:50	51.7	51.7	51.7	91	49.2	0	0	---	0.00	30.156 
01:55	51.7	51.7	51.7	91	49.2	0	1	68	0.00	30.156 
02:00	51.6	51.6	51.6	91	49.1	0	0	---	0.00	30.155 
02:05	51.6	51.6	51.6	91	49.1	0	0	---	0.00	30.155 
02:10	51.6	51.6	51.6	91	49.1	0	0	---	0.00	30.155 
02:15	51.4	51.4	51.4	91	48.9	0	0	---	0.00	30.152 
02:20	51.4	51.4	51.4	91	48.9	0	0	---	0.00	30.152 
02:25	51.4	51.4	51.4	91	48.9	0	0	---	0.00	30.152 
02:30	51.4	51.4	51.4	91	48.9	0	0	---	0.00	30.150 
02:35	51.4	51.4	51.4	91	48.9	0	0	---	0.00	30.150 
02:40	51.4	51.4	51.4	91	48.9	0	1	68	0.00	30.150 
02:45	51.3	51.3	51.3	91	48.8	0	0	---	0.00	30.142 
02:50	51.3	51.3	51.3	91	48.8	0	0	---	0.00	30.142 
02:55	51.3	51.3	51.3	91	48.8	0	0	---	0.00	30.142 
03:00	51.3	51.3	51.3	92	49.1	0	0	---	0.00	30.136 
03:05	51.1	51.1	51.1	92	48.9	0	0	---	0.00	30.136 
03:10	51.1	51.1	51.1	92	48.9	0	1	68	0.00	30.136 
03:15	51.1	51.1	51.1	92	48.9	0	3	68	0.00	30.134 
03:20	51.1	51.1	51.1	92	48.9	0	2	68	0.00	30.134 
03:25	51.1	51.1	51.1	92	48.9	0	1	68	0.00	30.134 
03:30	51.1	51.1	51.1	92	48.9	0	1	68	0.00	30.127 
03:35	51.1	51.1	51.1	92	48.9	0	2	68	0.00	30.127 
03:40	51.0	51.0	51.0	92	48.8	0	1	68	0.00	30.127 
03:45	51.0	51.0	51.0	92	48.8	0	1	68	0.00	30.129 
03:50	51.0	51.0	51.0	92	48.8	0	0	---	0.00	30.129 
03:55	51.0	51.0	51.0	92	48.8	0	0	---	0.00	30.129 
04:00	51.0	51.0	51.0	92	48.8	0	0	---	0.00	30.128 
04:05	50.8	50.8	50.8	92	48.6	0	1	68	0.00	30.128 
04:10	50.8	50.8	50.8	92	48.6	0	2	68	0.00	30.128 
04:15	50.7	50.7	50.7	92	48.5	0	2	68	0.00	30.128 
04:20	50.7	50.7	50.7	92	48.5	0	1	68	0.00	30.128 
04:25	50.5	50.5	50.5	91	48.0	0	1	68	0.00	30.128 
04:30	50.5	50.5	50.5	91	48.0	0	2	68	0.00	30.130 
04:35	50.5	50.5	50.5	90	47.7	0	0	---	0.00	30.130 
04:40	50.4	50.4	50.4	90	47.6	0	2	68	0.00	30.130 
04:45	50.4	50.4	50.4	90	47.6	0	0	---	0.00	30.134 
04:50	50.5	50.5	50.5	90	47.7	0	0	---	0.00	30.134 
04:55	50.5	50.5	50.5	90	47.7	0	0	---	0.00	30.134 
05:00	50.5	50.5	50.5	90	47.7	0	0	---	0.00	30.135 
05:05	50.5	50.5	50.5	90	47.7	0	0	---	0.00	30.135 
05:10	50.5	50.5	50.5	90	47.7	0	0	---	0.00	30.135 
05:15	50.4	50.4	50.4	89	47.3	0	0	---	0.00	30.140 
05:20	50.4	50.4	50.4	89	47.3	0	0	---	0.00	30.140 
05:25	50.4	50.4	50.4	89	47.3	0	0	---	0.00	30.140 
05:30	50.2	50.2	50.2	89	47.1	0	0	---	0.00	30.141 
05:35	50.1	50.1	50.1	89	47.0	0	1	68	0.00	30.141 
05:40	50.1	50.1	50.1	89	47.0	0	1	68	0.00	30.141 
05:45	49.9	49.9	49.9	88	46.5	0	1	68	0.00	30.145 
05:50	49.8	49.8	49.8	88	46.4	0	2	68	0.00	30.145 
05:55	49.8	49.8	49.8	88	46.4	0	1	68	0.00	30.145 
06:00	49.5	49.5	49.5	87	45.8	0	3	68	0.00	30.143 
06:05	49.4	49.4	49.4	86	45.4	0	2	68	0.00	30.143 
06:10	49.2	49.2	49.2	85	44.9	0	1	68	0.00	30.143 
06:15	49.1	49.1	49.1	84	44.5	0	0	---	0.00	30.154 
06:20	48.9	48.9	48.9	84	44.3	0	1	68	0.00	30.154 
06:25	48.8	48.8	48.8	83	43.9	0	0	---	0.00	30.154 
06:30	48.6	48.6	48.6	83	43.7	0	0	---	0.00	30.158 
06:35	48.3	48.3	48.3	82	43.1	0	0	---	0.00	30.158 
06:40	48.2	48.2	48.2	80	42.3	0	2	68	0.00	30.158 
06:45	48.0	48.0	48.0	78	41.5	0	1	68	0.00	30.163 
06:50	47.9	47.9	47.9	78	41.4	0	0	---	0.00	30.163 
06:55	47.6	47.6	47.6	77	40.8	0	0	---	0.00	30.163 
07:00	47.4	47.4	47.4	77	40.6	0	0	---	0.00	30.174 
07:05	47.3	47.3	47.3	78	40.8	0	0	---	0.00	30.174 
07:10	47.1	47.1	47.1	78	40.6	0	0	---	0.00	30.174 
07:15	47.1	47.1	47.1	78	40.6	0	1	68	0.00	30.175 
07:20	47.1	47.1	47.1	78	40.6	0	0	---	0.00	30.175 
07:25	47.3	47.3	47.3	78	40.8	0	0	---	0.00	30.175 
07:30	47.6	47.6	47.6	77	40.8	0	2	68	0.00	30.178 
07:35	48.2	48.2	48.2	77	41.3	0	2	68	0.00	30.178 
07:40	48.6	48.6	48.6	75	41.0	0	2	68	0.00	30.178 
07:45	49.5	49.5	49.5	72	40.9	0	3	68	0.00	30.179 
07:50	50.4	50.4	50.4	71	41.4	0	1	68	0.00	30.179 
07:55	51.1	51.1	51.1	67	40.5	0	2	68	0.00	30.179 
08:00	51.6	51.6	51.6	66	40.6	0	2	68	0.00	30.177 
08:05	51.7	51.7	51.7	65	40.3	0	1	68	0.00	30.177 
08:10	51.7	51.7	51.7	67	41.1	0	1	68	0.00	30.177 
08:15	51.7	51.7	51.7	66	40.7	0	1	68	0.00	30.178 
08:20	52.0	52.0	52.0	65	40.6	0	1	68	0.00	30.178 
08:25	52.5	52.5	52.5	65	41.1	0	3	68	0.00	30.178 
08:30	53.2	53.2	53.2	63	40.9	0	3	68	0.00	30.183 
08:35	53.9	53.9	53.9	58	39.5	0	3	68	0.00	30.183 
08:40	54.4	54.4	54.4	56	39.0	0	2	68	0.00	30.183 
08:45	54.7	54.7	54.7	54	38.4	1	3	68	0.00	30.184 
08:50	55.0	55.0	55.0	58	40.5	1	4	68	0.00	30.184 
08:55	55.3	55.3	55.3	54	38.9	1	4	90	0.00	30.184 
09:00	55.6	55.6	55.6	54	39.2	0	3	90	0.00	30.186 
09:05	55.6	55.6	55.6	54	39.2	0	2	90	0.00	30.186 
09:10	55.7	55.7	55.7	54	39.3	0	3	90	0.00	30.186 
09:15	56.0	56.0	56.0	54	39.6	0	3	45	0.00	30.187 
09:20	56.3	56.3	56.3	49	37.4	2	7	45	0.00	30.187 
09:25	56.2	56.2	56.2	49	37.3	2	7	90	0.00	30.187 
09:30	55.9	55.9	55.9	48	36.5	2	5	90	0.00	30.188 
09:35	55.9	55.9	55.9	50	37.5	2	5	90	0.00	30.188 
09:40	56.2	56.2	56.2	49	37.3	1	4	90	0.00	30.188 
09:45	56.3	56.3	56.3	47	36.3	2	4	90	0.00	30.189 
09:50	56.7	56.7	56.7	51	38.8	0	3	90	0.00	30.189 
09:55	57.3	57.3	57.3	51	39.3	0	2	90	0.00	30.189 
10:00	57.8	57.8	57.8	51	39.8	0	3	90	0.00	30.187 
10:05	58.0	58.0	58.0	49	38.9	1	3	90	0.00	30.187 
10:10	58.3	58.3	58.3	47	38.2	1	3	90	0.00	30.187 
10:15	58.3	58.3	58.3	46	37.6	1	2	90	0.00	30.187 
10:20	58.3	58.3	58.3	44	36.5	1	5	90	0.00	30.187 
10:25	58.6	58.6	58.6	44	36.8	1	4	112	0.00	30.187 
10:30	58.6	58.6	58.6	46	37.9	1	2	112	0.00	30.187 
10:35	59.0	59.0	59.0	45	37.7	1	5	112	0.00	30.187 
10:40	58.7	58.7	58.7	44	36.8	1	3	0	0.00	30.187 
10:45	59.0	59.0	59.0	42	35.9	1	3	0	0.00	30.187 
10:50	59.5	59.5	59.5	42	36.4	1	3	22	0.00	30.187 
10:55	59.6	59.6	59.6	39	34.6	1	5	90	0.00	30.187 
11:00	59.9	59.9	59.9	42	36.8	2	5	112	0.00	30.186 
11:05	59.9	59.9	59.9	46	39.1	0	2	112	0.00	30.186 
11:10	60.1	60.1	60.1	40	35.7	1	4	90	0.00	30.186 
11:15	60.4	60.4	60.4	42	37.2	1	3	90	0.00	30.185 
11:20	60.4	60.4	60.4	37	34.0	2	5	90	0.00	30.185 
11:25	60.5	60.5	60.5	43	37.9	1	4	90	0.00	30.185 
11:30	60.9	60.9	60.9	41	37.0	1	7	90	0.00	30.187 
11:35	60.7	60.7	60.7	39	35.6	1	5	90	0.00	30.187 
11:40	61.0	61.0	61.0	40	36.5	1	5	90	0.00	30.187 
11:45	61.6	61.6	61.6	42	38.3	1	4	338	0.00	30.185 
11:50	61.6	61.6	61.6	40	37.0	0	3	68	0.00	30.185 
11:55	61.5	61.5	61.5	39	36.3	0	2	68	0.00	30.185 
12:00	61.5	61.5	61.5	38	35.7	1	5	112	0.00	30.185 
12:05	61.3	61.3	61.3	39	36.1	1	5	225	0.00	30.185 
12:10	61.6	61.6	61.6	42	38.3	0	3	158	0.00	30.185 
12:15	61.5	61.5	61.5	38	35.7	0	4	292	0.00	30.181 
12:20	61.8	61.8	61.8	43	39.1	1	4	135	0.00	30.181 
12:25	62.3	62.3	62.3	42	38.9	1	4	68	0.00	30.181 
12:30	62.4	62.4	62.4	37	35.8	1	5	90	0.00	30.182 
12:35	62.6	62.6	62.6	37	36.0	1	5	112	0.00	30.182 
12:40	62.7	62.7	62.7	39	37.4	1	6	90	0.00	30.182 
12:45	62.7	62.7	62.7	38	36.7	2	7	112	0.00	30.174 
12:50	62.4	62.4	62.4	39	37.1	1	3	45	0.00	30.174 
12:55	62.3	62.3	62.3	37	35.7	2	5	292	0.00	30.174 
13:00	62.4	62.4	62.4	41	38.4	0	4	112	0.00	30.169 
13:05	62.7	62.7	62.7	39	37.4	2	5	90	0.00	30.169 
13:10	62.9	62.9	62.9	37	36.2	1	5	68	0.00	30.169 
13:15	62.9	62.9	62.9	39	37.6	2	6	90	0.00	30.168 
13:20	62.7	62.7	62.7	41	38.7	1	4	292	0.00	30.168 
13:25	62.9	62.9	62.9	41	38.8	1	4	112	0.00	30.168 
13:30	63.2	63.2	63.2	40	38.5	1	3	45	0.00	30.167 
13:35	63.4	63.4	63.4	39	38.0	2	4	112	0.00	30.167 
13:40	63.2	63.2	63.2	37	36.5	1	6	338	0.00	30.167 
13:45	63.1	63.1	63.1	38	37.1	1	6	68	0.00	30.166 
13:50	63.7	63.7	63.7	43	40.8	1	7	90	0.00	30.166 
13:55	64.0	64.0	64.0	39	38.5	1	4	90	0.00	30.166 
14:00	64.2	64.2	64.2	38	38.1	1	3	90	0.00	30.159 
14:05	64.5	64.5	64.5	41	40.3	1	5	90	0.00	30.159 
14:10	64.2	64.2	64.2	35	36.0	1	5	90	0.00	30.159 
14:15	64.0	64.0	64.0	35	35.8	2	9	112	0.00	30.157 
14:20	63.9	63.9	63.9	37	37.1	2	7	45	0.00	30.157 
14:25	63.7	63.7	63.7	35	35.5	2	6	90	0.00	30.157 
14:30	64.0	64.0	64.0	33	34.3	1	5	90	0.00	30.157 
14:35	63.9	63.9	63.9	34	35.0	1	4	0	0.00	30.157 
14:40	64.2	64.2	64.2	35	36.0	1	5	90	0.00	30.157 
14:45	64.3	64.3	64.3	35	36.1	1	6	68	0.00	30.154 
14:50	64.3	64.3	64.3	35	36.1	1	4	90	0.00	30.154 
14:55	64.2	64.2	64.2	33	34.5	1	5	0	0.00	30.154 
15:00	64.2	64.2	64.2	35	36.0	1	4	90	0.00	30.152 
15:05	64.5	64.5	64.5	36	36.9	2	9	90	0.00	30.152 
15:10	64.7	64.7	64.7	38	38.5	1	5	112	0.00	30.152 
15:15	64.7	64.7	64.7	33	34.9	1	4	112	0.00	30.143 
15:20	64.5	64.5	64.5	31	33.2	2	7	112	0.00	30.143 
15:25	64.7	64.7	64.7	35	36.4	1	5	68	0.00	30.143 
15:30	65.0	65.0	65.0	35	36.7	1	3	90	0.00	30.139 
15:35	65.3	65.3	65.3	34	36.2	1	4	90	0.00	30.139 
15:40	65.0	65.0	65.0	32	34.4	1	3	90	0.00	30.139 
15:45	64.8	64.8	64.8	29	31.8	0	2	45	0.00	30.137 
15:50	64.8	64.8	64.8	31	33.5	0	2	45	0.00	30.137 
15:55	64.8	64.8	64.8	30	32.6	1	5	292	0.00	30.137 
16:00	64.8	64.8	64.8	31	33.5	1	6	292	0.00	30.138 
16:05	65.0	65.0	65.0	31	33.6	0	1	90	0.00	30.138 
16:10	65.3	65.3	65.3	35	36.9	1	4	135	0.00	30.138 
16:15	65.3	65.3	65.3	31	33.9	1	4	22	0.00	30.135 
16:20	65.5	65.5	65.5	34	36.4	0	2	90	0.00	30.135 
16:25	65.6	65.6	65.6	34	36.5	1	4	90	0.00	30.135 
16:30	65.6	65.6	65.6	29	32.5	3	10	90	0.00	30.130 
16:35	65.5	65.5	65.5	31	34.1	0	3	112	0.00	30.130 
16:40	65.2	65.2	65.2	30	33.0	1	3	90	0.00	30.130 
16:45	65.0	65.0	65.0	29	32.0	1	5	22	0.00	30.124 
16:50	65.3	65.3	65.3	34	36.2	0	3	292	0.00	30.124 
16:55	65.6	65.6	65.6	34	36.5	1	4	292	0.00	30.124 
17:00	65.8	65.8	65.8	31	34.3	1	5	292	0.00	30.119 
17:05	65.6	65.6	65.6	28	31.6	1	4	68	0.00	30.119 
17:10	65.6	65.6	65.6	33	35.7	1	4	45	0.00	30.119 
17:15	65.5	65.5	65.5	27	30.6	1	2	90	0.00	30.120 
17:20	65.6	65.6	65.6	28	31.6	1	4	270	0.00	30.120 
17:25	65.6	65.6	65.6	27	30.7	0	2	270	0.00	30.120 
17:30	65.5	65.5	65.5	29	32.4	1	6	270	0.00	30.119 
17:35	65.5	65.5	65.5	31	34.1	0	3	68	0.00	30.119 
17:40	65.3	65.3	65.3	28	31.4	1	5	292	0.00	30.119 
17:45	65.3	65.3	65.3	28	31.4	1	3	90	0.00	30.121 
17:50	65.0	65.0	65.0	28	31.1	1	3	90	0.00	30.121 
17:55	64.7	64.7	64.7	28	30.8	0	2	338	0.00	30.121 
18:00	64.7	64.7	64.7	27	29.9	1	4	68	0.00	30.122 
18:05	64.5	64.5	64.5	28	30.7	1	4	45	0.00	30.122 
18:10	64.5	64.5	64.5	27	29.8	1	4	68	0.00	30.122 
18:15	64.3	64.3	64.3	27	29.6	0	1	68	0.00	30.126 
18:20	64.2	64.2	64.2	28	30.4	0	3	68	0.00	30.126 
18:25	64.0	64.0	64.0	28	30.2	2	6	112	0.00	30.126 
18:30	63.9	63.9	63.9	30	31.9	0	2	112	0.00	30.125 
18:35	63.9	63.9	63.9	29	31.0	1	3	22	0.00	30.125 
18:40	63.9	63.9	63.9	31	32.7	1	4	90	0.00	30.125 
18:45	64.0	64.0	64.0	33	34.3	0	1	90	0.00	30.124 
18:50	63.9	63.9	63.9	32	33.5	1	4	90	0.00	30.124 
18:55	63.9	63.9	63.9	31	32.7	0	1	90	0.00	30.124 
19:00	63.7	63.7	63.7	33	34.1	0	4	135	0.00	30.124 
19:05	63.7	63.7	63.7	30	31.7	0	2	45	0.00	30.124 
19:10	63.7	63.7	63.7	33	34.1	1	3	45	0.00	30.124 
19:15	63.5	63.5	63.5	31	32.3	0	3	45	0.00	30.119 
19:20	63.4	63.4	63.4	32	33.0	1	3	45	0.00	30.119 
19:25	63.2	63.2	63.2	32	32.9	0	1	45	0.00	30.119 
19:30	62.9	62.9	62.9	30	31.0	1	2	45	0.00	30.121 
19:35	62.7	62.7	62.7	31	31.6	1	4	90	0.00	30.121 
19:40	62.7	62.7	62.7	33	33.2	0	2	90	0.00	30.121 
19:45	62.6	62.6	62.6	32	32.3	0	2	90	0.00	30.121 
19:50	62.6	62.6	62.6	32	32.3	0	1	90	0.00	30.121 
19:55	62.4	62.4	62.4	32	32.2	0	2	90	0.00	30.121 
20:00	62.3	62.3	62.3	34	33.6	0	2	90	0.00	30.120 
20:05	62.1	62.1	62.1	33	32.7	0	3	90	0.00	30.120 
20:10	62.0	62.0	62.0	33	32.6	1	4	90	0.00	30.120 
20:15	61.8	61.8	61.8	35	33.9	0	2	90	0.00	30.118 
20:20	61.6	61.6	61.6	35	33.7	0	2	90	0.00	30.118 
20:25	61.5	61.5	61.5	37	35.0	0	1	90	0.00	30.118 
20:30	61.3	61.3	61.3	38	35.5	0	0	---	0.00	30.122 
20:35	61.0	61.0	61.0	38	35.2	0	0	---	0.00	30.122 
20:40	60.7	60.7	60.7	39	35.6	0	0	---	0.00	30.122 
20:45	60.4	60.4	60.4	40	36.0	0	0	---	0.00	30.124 
20:50	59.9	59.9	59.9	41	36.1	0	0	---	0.00	30.124 
20:55	59.6	59.6	59.6	42	36.5	0	0	---	0.00	30.124 
21:00	59.0	59.0	59.0	42	35.9	0	0	---	0.00	30.125 
21:05	58.4	58.4	58.4	42	35.4	0	0	---	0.00	30.125 
21:10	58.0	58.0	58.0	42	35.0	0	0	---	0.00	30.125 
21:15	57.6	57.6	57.6	44	35.8	0	0	---	0.00	30.123 
21:20	57.0	57.0	57.0	46	36.4	0	0	---	0.00	30.123 
21:25	56.5	56.5	56.5	47	36.5	0	0	---	0.00	30.123 
21:30	56.0	56.0	56.0	49	37.1	0	0	---	0.00	30.126 
21:35	55.4	55.4	55.4	52	38.1	0	0	---	0.00	30.126 
21:40	55.0	55.0	55.0	54	38.7	0	0	---	0.00	30.126 
21:45	54.5	54.5	54.5	54	38.2	0	0	---	0.00	30.133 
21:50	54.1	54.1	54.1	55	38.3	0	0	---	0.00	30.133 
21:55	53.8	53.8	53.8	57	38.9	0	0	---	0.00	30.133 
22:00	53.5	53.5	53.5	58	39.1	0	0	---	0.00	30.138 
22:05	53.2	53.2	53.2	60	39.7	0	0	---	0.00	30.138 
22:10	52.9	52.9	52.9	62	40.2	0	0	---	0.00	30.138 
22:15	52.6	52.6	52.6	63	40.4	0	0	---	0.00	30.138 
22:20	52.3	52.3	52.3	63	40.1	0	0	---	0.00	30.138 
22:25	52.0	52.0	52.0	63	39.8	0	0	---	0.00	30.138 
22:30	51.7	51.7	51.7	64	39.9	0	0	---	0.00	30.139 
22:35	51.4	51.4	51.4	64	39.6	0	0	---	0.00	30.139 
22:40	51.1	51.1	51.1	65	39.7	0	0	---	0.00	30.139 
22:45	50.7	50.7	50.7	66	39.8	0	0	---	0.00	30.143 
22:50	50.4	50.4	50.4	67	39.9	0	0	---	0.00	30.143 
22:55	50.2	50.2	50.2	68	40.1	0	0	---	0.00	30.143 
23:00	49.9	49.9	49.9	69	40.1	0	0	---	0.00	30.148 
23:05	49.8	49.8	49.8	69	40.0	0	0	---	0.00	30.148 
23:10	49.4	49.4	49.4	69	39.7	0	0	---	0.00	30.148 
23:15	49.2	49.2	49.2	69	39.5	0	0	---	0.00	30.146 
23:20	49.1	49.1	49.1	71	40.1	0	0	---	0.00	30.146 
23:25	48.9	48.9	48.9	72	40.3	0	0	---	0.00	30.146 
23:30	48.8	48.8	48.8	73	40.5	0	0	---	0.00	30.144 
23:35	48.6	48.6	48.6	74	40.7	0	0	---	0.00	30.144 
23:40	48.3	48.3	48.3	75	40.7	0	2	90	0.00	30.144 
23:45	48.2	48.2	48.2	75	40.7	0	0	---	0.00	30.146 
23:50	48.0	48.0	48.0	75	40.5	0	0	---	0.00	30.146 
23:55	47.7	47.7	47.7	75	40.2	0	0	---	0.00	30.146 

CoCoRaHS
IN-AL-39
A2 Web Hosting
Creative Commons License
GoDaddy
search engine by freefind advanced

loaded 2018-11-15 16:33:21 • last modified 2010-11-18 10:43:29
Privacy PolicyDisclaimer
• wx.awcolley.com is powered by PmWiki v.2002016 •
• all content (unless otherwise noted) © 2018 A W Colley